Forside
METAR-TAF:

METAR-TAF

Lufthavne :

Madrid-Barajas Lufthavn

Madrid, Spanien

Breddekreds: 40-27N, længdekreds: 003-33W, højde: 609 m

Aktuelle vejr

Denne rapport blev lavet for 32 minutter siden, kl. 12:00 UTC
Vind 1 kt fra sydsydvest
Temperatur 21°C
Fugtighed 49%
Tryk 1017 hPa
Sigt 10 km eller mere
ingen skyer under 1500m og ingen cumulonimbus

METAR: LEMD 171200Z 21001KT CAVOK 21/10 Q1017 NOSIG

Tid: 14:32 (12:32 UTC)

Vejrudsigter

Denne rapport blev lavet for 1 time og 32 minutter siden, kl. 11:00 UTC
Foreløbig gælder fra 17 på 12 UTC til 18 på 18 UTC
Vind 5 kt fra varierende retninger
Sigt 10 km eller mere
ingen skyer under 1500m og ingen cumulonimbus
Sandsynlighed 30% :
Midlertidig
fra 17 på 15 UTC til 17 på 18 UTC
Vind 10 kt fra sydvest
ændring
fra 18 på 12 UTC til 18 på 14 UTC
Vind 10 kt fra nordøst

TAF: LEMD 171100Z 1712/1818 VRB05KT CAVOK TX23/1715Z TN12/1806Z PROB30 TEMPO 1715/1718 22010KT BECMG 1812/1814 04010KT

Vejrobservationer og prognoser fra mere end 4000 lufthavne (METAR og TAF).

De gule og røde prikker repræsenterer de meteorologiske stationer.

Flyt musen over at se navnet på stationen.

Så klik over at se vejr observationer og prognoser.

At skifte det kort: Klik på de grønne knapper med et sort kors for at zoome ind; på den grønne knap med en bindestreg for at zoome ud; eller på de grønne pile for tilstødende kort.


METAR-TAF: